sensor_id;sensor_type;location;lat;lon;timestamp;pressure;altitude;pressure_sealevel;temperature
64947;BMP280;51469;52.150;4.682;2023-02-28T00:00:42;103452.50;;;8.85
64947;BMP280;51469;52.150;4.682;2023-02-28T00:03:08;103456.78;;;8.91
64947;BMP280;51469;52.150;4.682;2023-02-28T00:05:34;103465.50;;;8.93
64947;BMP280;51469;52.150;4.682;2023-02-28T00:07:59;103481.31;;;8.96
64947;BMP280;51469;52.150;4.682;2023-02-28T00:10:28;103471.41;;;9.00
64947;BMP280;51469;52.150;4.682;2023-02-28T00:12:55;103462.06;;;9.01
64947;BMP280;51469;52.150;4.682;2023-02-28T00:15:22;103466.38;;;9.07
64947;BMP280;51469;52.150;4.682;2023-02-28T00:17:48;103464.72;;;9.06
64947;BMP280;51469;52.150;4.682;2023-02-28T00:20:14;103465.16;;;9.13
64947;BMP280;51469;52.150;4.682;2023-02-28T00:22:42;103461.81;;;9.16
64947;BMP280;51469;52.150;4.682;2023-02-28T00:25:09;103470.47;;;9.23
64947;BMP280;51469;52.150;4.682;2023-02-28T00:27:36;103460.56;;;9.27
64947;BMP280;51469;52.150;4.682;2023-02-28T00:30:01;103442.25;;;9.23
64947;BMP280;51469;52.150;4.682;2023-02-28T00:32:27;103457.00;;;9.40
64947;BMP280;51469;52.150;4.682;2023-02-28T00:34:52;103451.00;;;9.38
64947;BMP280;51469;52.150;4.682;2023-02-28T00:37:17;103457.31;;;9.39
64947;BMP280;51469;52.150;4.682;2023-02-28T00:39:43;103451.66;;;9.35
64947;BMP280;51469;52.150;4.682;2023-02-28T00:42:08;103449.41;;;9.37
64947;BMP280;51469;52.150;4.682;2023-02-28T00:44:34;103456.50;;;9.38
64947;BMP280;51469;52.150;4.682;2023-02-28T00:47:00;103453.25;;;9.36
64947;BMP280;51469;52.150;4.682;2023-02-28T00:49:27;103456.78;;;9.37
64947;BMP280;51469;52.150;4.682;2023-02-28T00:51:53;103454.69;;;9.34
64947;BMP280;51469;52.150;4.682;2023-02-28T00:54:19;103456.31;;;9.35
64947;BMP280;51469;52.150;4.682;2023-02-28T00:56:45;103453.25;;;9.36
64947;BMP280;51469;52.150;4.682;2023-02-28T00:59:14;103455.47;;;9.34
64947;BMP280;51469;52.150;4.682;2023-02-28T01:01:40;103453.25;;;9.36
64947;BMP280;51469;52.150;4.682;2023-02-28T01:04:05;103454.28;;;9.40
64947;BMP280;51469;52.150;4.682;2023-02-28T01:06:31;103459.22;;;9.38
64947;BMP280;51469;52.150;4.682;2023-02-28T01:08:57;103460.84;;;9.39
64947;BMP280;51469;52.150;4.682;2023-02-28T01:11:22;103463.88;;;9.38
64947;BMP280;51469;52.150;4.682;2023-02-28T01:13:48;103453.69;;;9.43
64947;BMP280;51469;52.150;4.682;2023-02-28T01:16:13;103464.63;;;9.43
64947;BMP280;51469;52.150;4.682;2023-02-28T01:18:39;103459.97;;;9.44
64947;BMP280;51469;52.150;4.682;2023-02-28T01:21:16;103459.69;;;9.46
64947;BMP280;51469;52.150;4.682;2023-02-28T01:23:42;103457.53;;;9.43
64947;BMP280;51469;52.150;4.682;2023-02-28T01:26:20;103460.78;;;9.44
64947;BMP280;51469;52.150;4.682;2023-02-28T01:28:46;103455.19;;;9.49
64947;BMP280;51469;52.150;4.682;2023-02-28T01:31:12;103455.72;;;9.52
64947;BMP280;51469;52.150;4.682;2023-02-28T01:33:38;103451.34;;;9.51
64947;BMP280;51469;52.150;4.682;2023-02-28T01:36:07;103446.97;;;9.49
64947;BMP280;51469;52.150;4.682;2023-02-28T01:38:33;103445.88;;;9.51
64947;BMP280;51469;52.150;4.682;2023-02-28T01:40:58;103444.44;;;9.53
64947;BMP280;51469;52.150;4.682;2023-02-28T01:43:26;103449.41;;;9.51
64947;BMP280;51469;52.150;4.682;2023-02-28T01:45:54;103453.50;;;9.54
64947;BMP280;51469;52.150;4.682;2023-02-28T01:48:32;103447.06;;;9.58
64947;BMP280;51469;52.150;4.682;2023-02-28T01:51:04;103439.69;;;9.59
64947;BMP280;51469;52.150;4.682;2023-02-28T01:53:34;103439.25;;;9.52
64947;BMP280;51469;52.150;4.682;2023-02-28T01:56:04;103430.53;;;9.49
64947;BMP280;51469;52.150;4.682;2023-02-28T01:58:31;103429.53;;;9.46
64947;BMP280;51469;52.150;4.682;2023-02-28T02:00:56;103432.75;;;9.47
64947;BMP280;51469;52.150;4.682;2023-02-28T02:03:23;103432.06;;;9.42
64947;BMP280;51469;52.150;4.682;2023-02-28T02:05:48;103440.28;;;9.42
64947;BMP280;51469;52.150;4.682;2023-02-28T02:08:25;103434.50;;;9.43
64947;BMP280;51469;52.150;4.682;2023-02-28T02:10:52;103441.66;;;9.39
64947;BMP280;51469;52.150;4.682;2023-02-28T02:15:47;103437.88;;;9.54
64947;BMP280;51469;52.150;4.682;2023-02-28T02:18:34;103443.50;;;9.57
64947;BMP280;51469;52.150;4.682;2023-02-28T02:21:30;103423.81;;;9.69
64947;BMP280;51469;52.150;4.682;2023-02-28T02:27:14;103415.78;;;9.73
64947;BMP280;51469;52.150;4.682;2023-02-28T02:36:22;103401.72;;;9.66
64947;BMP280;51469;52.150;4.682;2023-02-28T02:38:34;103405.53;;;9.65
64947;BMP280;51469;52.150;4.682;2023-02-28T02:41:14;103403.97;;;9.64
64947;BMP280;51469;52.150;4.682;2023-02-28T02:43:48;103409.94;;;9.66
64947;BMP280;51469;52.150;4.682;2023-02-28T02:46:28;103412.66;;;9.66
64947;BMP280;51469;52.150;4.682;2023-02-28T02:48:56;103411.03;;;9.65
64947;BMP280;51469;52.150;4.682;2023-02-28T02:51:23;103407.19;;;9.66
64947;BMP280;51469;52.150;4.682;2023-02-28T02:53:54;103414.69;;;9.74
64947;BMP280;51469;52.150;4.682;2023-02-28T02:56:23;103412.44;;;9.76
64947;BMP280;51469;52.150;4.682;2023-02-28T02:58:51;103409.13;;;9.79
64947;BMP280;51469;52.150;4.682;2023-02-28T03:01:20;103412.75;;;9.88
64947;BMP280;51469;52.150;4.682;2023-02-28T03:03:57;103414.84;;;9.91
64947;BMP280;51469;52.150;4.682;2023-02-28T03:06:24;103422.38;;;9.99
64947;BMP280;51469;52.150;4.682;2023-02-28T03:08:49;103431.09;;;10.01
64947;BMP280;51469;52.150;4.682;2023-02-28T03:11:15;103424.00;;;10.00
64947;BMP280;51469;52.150;4.682;2023-02-28T03:16:46;103417.38;;;10.01
64947;BMP280;51469;52.150;4.682;2023-02-28T03:27:23;103412.84;;;9.96
64947;BMP280;51469;52.150;4.682;2023-02-28T03:30:00;103412.84;;;9.96
64947;BMP280;51469;52.150;4.682;2023-02-28T03:35:23;103408.19;;;9.97
64947;BMP280;51469;52.150;4.682;2023-02-28T03:37:53;103408.97;;;9.97
64947;BMP280;51469;52.150;4.682;2023-02-28T03:40:25;103399.44;;;9.95
64947;BMP280;51469;52.150;4.682;2023-02-28T03:42:58;103397.81;;;9.94
64947;BMP280;51469;52.150;4.682;2023-02-28T03:45:27;103404.09;;;9.94
64947;BMP280;51469;52.150;4.682;2023-02-28T03:48:09;103406.06;;;9.94
64947;BMP280;51469;52.150;4.682;2023-02-28T03:50:42;103405.53;;;9.92
64947;BMP280;51469;52.150;4.682;2023-02-28T03:55:40;103406.97;;;9.89
64947;BMP280;51469;52.150;4.682;2023-02-28T04:00:56;103400.16;;;9.87
64947;BMP280;51469;52.150;4.682;2023-02-28T04:03:22;103402.91;;;9.87
64947;BMP280;51469;52.150;4.682;2023-02-28T04:05:53;103414.06;;;9.90
64947;BMP280;51469;52.150;4.682;2023-02-28T04:08:20;103404.91;;;9.95
64947;BMP280;51469;52.150;4.682;2023-02-28T04:10:50;103406.41;;;10.01
64947;BMP280;51469;52.150;4.682;2023-02-28T04:13:18;103410.19;;;10.05
64947;BMP280;51469;52.150;4.682;2023-02-28T04:15:43;103416.06;;;10.12
64947;BMP280;51469;52.150;4.682;2023-02-28T04:18:09;103415.66;;;10.18
64947;BMP280;51469;52.150;4.682;2023-02-28T04:20:34;103422.63;;;10.24
64947;BMP280;51469;52.150;4.682;2023-02-28T04:22:59;103420.53;;;10.21
64947;BMP280;51469;52.150;4.682;2023-02-28T04:25:24;103418.09;;;10.20
64947;BMP280;51469;52.150;4.682;2023-02-28T04:27:50;103423.56;;;10.20
64947;BMP280;51469;52.150;4.682;2023-02-28T04:30:15;103422.31;;;10.26
64947;BMP280;51469;52.150;4.682;2023-02-28T04:32:41;103432.47;;;10.25
64947;BMP280;51469;52.150;4.682;2023-02-28T04:35:07;103425.38;;;10.24
64947;BMP280;51469;52.150;4.682;2023-02-28T04:37:32;103425.97;;;10.35
64947;BMP280;51469;52.150;4.682;2023-02-28T04:40:00;103421.69;;;10.29
64947;BMP280;51469;52.150;4.682;2023-02-28T04:42:26;103423.97;;;10.27
64947;BMP280;51469;52.150;4.682;2023-02-28T04:44:51;103423.44;;;10.25
64947;BMP280;51469;52.150;4.682;2023-02-28T04:47:17;103410.47;;;10.17
64947;BMP280;51469;52.150;4.682;2023-02-28T04:49:42;103418.25;;;10.23
64947;BMP280;51469;52.150;4.682;2023-02-28T04:52:08;103426.31;;;10.20
64947;BMP280;51469;52.150;4.682;2023-02-28T04:54:35;103426.63;;;10.18
64947;BMP280;51469;52.150;4.682;2023-02-28T04:57:00;103426.63;;;10.18
64947;BMP280;51469;52.150;4.682;2023-02-28T04:59:26;103428.84;;;10.16
64947;BMP280;51469;52.150;4.682;2023-02-28T05:01:52;103423.19;;;10.13
64947;BMP280;51469;52.150;4.682;2023-02-28T05:04:17;103416.66;;;10.09
64947;BMP280;51469;52.150;4.682;2023-02-28T05:06:43;103417.69;;;10.13
64947;BMP280;51469;52.150;4.682;2023-02-28T05:09:08;103424.63;;;10.10
64947;BMP280;51469;52.150;4.682;2023-02-28T05:11:36;103417.78;;;10.08
64947;BMP280;51469;52.150;4.682;2023-02-28T05:14:06;103411.81;;;10.06
64947;BMP280;51469;52.150;4.682;2023-02-28T05:16:32;103413.63;;;10.10
64947;BMP280;51469;52.150;4.682;2023-02-28T05:18:58;103411.16;;;10.09
64947;BMP280;51469;52.150;4.682;2023-02-28T05:21:30;103415.03;;;10.08
64947;BMP280;51469;52.150;4.682;2023-02-28T05:24:01;103411.47;;;10.07
64947;BMP280;51469;52.150;4.682;2023-02-28T05:26:27;103422.78;;;10.06
64947;BMP280;51469;52.150;4.682;2023-02-28T05:28:53;103418.91;;;10.07
64947;BMP280;51469;52.150;4.682;2023-02-28T05:31:19;103424.41;;;10.07
64947;BMP280;51469;52.150;4.682;2023-02-28T05:33:44;103417.28;;;10.06
64947;BMP280;51469;52.150;4.682;2023-02-28T05:36:10;103414.66;;;10.01
64947;BMP280;51469;52.150;4.682;2023-02-28T05:38:35;103410.19;;;10.05
64947;BMP280;51469;52.150;4.682;2023-02-28T05:41:05;103419.03;;;10.02
64947;BMP280;51469;52.150;4.682;2023-02-28T05:43:30;103419.69;;;10.07
64947;BMP280;51469;52.150;4.682;2023-02-28T05:45:55;103420.53;;;10.08
64947;BMP280;51469;52.150;4.682;2023-02-28T05:48:21;103430.50;;;10.04
64947;BMP280;51469;52.150;4.682;2023-02-28T05:50:46;103423.00;;;9.96
64947;BMP280;51469;52.150;4.682;2023-02-28T05:53:12;103423.50;;;9.98
64947;BMP280;51469;52.150;4.682;2023-02-28T05:55:37;103426.25;;;9.98
64947;BMP280;51469;52.150;4.682;2023-02-28T05:58:03;103420.56;;;9.94
64947;BMP280;51469;52.150;4.682;2023-02-28T06:00:28;103425.91;;;9.99
64947;BMP280;51469;52.150;4.682;2023-02-28T06:02:54;103424.66;;;9.97
64947;BMP280;51469;52.150;4.682;2023-02-28T06:05:22;103428.47;;;9.96
64947;BMP280;51469;52.150;4.682;2023-02-28T06:07:47;103434.56;;;9.93
64947;BMP280;51469;52.150;4.682;2023-02-28T06:10:13;103423.19;;;9.86
64947;BMP280;51469;52.150;4.682;2023-02-28T06:12:39;103425.28;;;9.80
64947;BMP280;51469;52.150;4.682;2023-02-28T06:15:07;103423.41;;;9.76
64947;BMP280;51469;52.150;4.682;2023-02-28T06:17:32;103423.81;;;9.69
64947;BMP280;51469;52.150;4.682;2023-02-28T06:19:58;103419.38;;;9.60
64947;BMP280;51469;52.150;4.682;2023-02-28T06:22:23;103424.63;;;9.56
64947;BMP280;51469;52.150;4.682;2023-02-28T06:24:48;103428.59;;;9.50
64947;BMP280;51469;52.150;4.682;2023-02-28T06:27:14;103428.50;;;9.41
64947;BMP280;51469;52.150;4.682;2023-02-28T06:29:39;103430.81;;;9.34
64947;BMP280;51469;52.150;4.682;2023-02-28T06:32:05;103430.88;;;9.29
64947;BMP280;51469;52.150;4.682;2023-02-28T06:34:31;103436.78;;;9.23
64947;BMP280;51469;52.150;4.682;2023-02-28T06:36:56;103434.97;;;9.18
64947;BMP280;51469;52.150;4.682;2023-02-28T06:39:22;103446.59;;;9.10
64947;BMP280;51469;52.150;4.682;2023-02-28T06:41:47;103453.38;;;8.99
64947;BMP280;51469;52.150;4.682;2023-02-28T06:44:15;103454.78;;;8.97
64947;BMP280;51469;52.150;4.682;2023-02-28T06:46:42;103450.28;;;8.87
64947;BMP280;51469;52.150;4.682;2023-02-28T06:49:08;103454.28;;;8.76
64947;BMP280;51469;52.150;4.682;2023-02-28T06:51:34;103459.91;;;8.66
64947;BMP280;51469;52.150;4.682;2023-02-28T06:54:00;103455.63;;;8.60
64947;BMP280;51469;52.150;4.682;2023-02-28T06:56:26;103463.47;;;8.48
64947;BMP280;51469;52.150;4.682;2023-02-28T06:58:51;103472.91;;;8.37
64947;BMP280;51469;52.150;4.682;2023-02-28T07:01:18;103483.91;;;8.32
64947;BMP280;51469;52.150;4.682;2023-02-28T07:03:44;103472.84;;;8.24
64947;BMP280;51469;52.150;4.682;2023-02-28T07:06:10;103485.22;;;8.16
64947;BMP280;51469;52.150;4.682;2023-02-28T07:08:35;103479.34;;;8.04
64947;BMP280;51469;52.150;4.682;2023-02-28T07:11:01;103485.41;;;8.01
64947;BMP280;51469;52.150;4.682;2023-02-28T07:13:27;103486.34;;;7.92
64947;BMP280;51469;52.150;4.682;2023-02-28T07:16:04;103480.66;;;7.88
64947;BMP280;51469;52.150;4.682;2023-02-28T07:18:29;103494.94;;;7.80
64947;BMP280;51469;52.150;4.682;2023-02-28T07:20:55;103487.28;;;7.82
64947;BMP280;51469;52.150;4.682;2023-02-28T07:23:21;103493.09;;;7.76
64947;BMP280;51469;52.150;4.682;2023-02-28T07:25:47;103493.41;;;7.69
64947;BMP280;51469;52.150;4.682;2023-02-28T07:28:13;103493.41;;;7.69
64947;BMP280;51469;52.150;4.682;2023-02-28T07:30:38;103483.59;;;7.68
64947;BMP280;51469;52.150;4.682;2023-02-28T07:33:04;103489.69;;;7.60
64947;BMP280;51469;52.150;4.682;2023-02-28T07:35:30;103496.31;;;7.54
64947;BMP280;51469;52.150;4.682;2023-02-28T07:37:57;103489.22;;;7.48
64947;BMP280;51469;52.150;4.682;2023-02-28T07:40:23;103496.41;;;7.44
64947;BMP280;51469;52.150;4.682;2023-02-28T07:42:48;103507.38;;;7.39
64947;BMP280;51469;52.150;4.682;2023-02-28T07:45:13;103500.78;;;7.40
64947;BMP280;51469;52.150;4.682;2023-02-28T07:47:39;103497.50;;;7.38
64947;BMP280;51469;52.150;4.682;2023-02-28T07:50:07;103496.06;;;7.17
64947;BMP280;51469;52.150;4.682;2023-02-28T07:52:33;103492.44;;;7.27
64947;BMP280;51469;52.150;4.682;2023-02-28T07:54:58;103500.09;;;7.30
64947;BMP280;51469;52.150;4.682;2023-02-28T07:57:24;103492.97;;;7.29
64947;BMP280;51469;52.150;4.682;2023-02-28T07:59:50;103499.25;;;7.29
64947;BMP280;51469;52.150;4.682;2023-02-28T08:02:17;103508.72;;;7.37
64947;BMP280;51469;52.150;4.682;2023-02-28T08:04:43;103503.03;;;7.33
64947;BMP280;51469;52.150;4.682;2023-02-28T08:07:08;103499.78;;;7.31
64947;BMP280;51469;52.150;4.682;2023-02-28T08:09:38;103503.53;;;7.40
64947;BMP280;51469;52.150;4.682;2023-02-28T08:12:04;103502.44;;;7.41
64947;BMP280;51469;52.150;4.682;2023-02-28T08:14:29;103498.25;;;7.49
64947;BMP280;51469;52.150;4.682;2023-02-28T08:16:55;103499.03;;;7.54
64947;BMP280;51469;52.150;4.682;2023-02-28T08:19:20;103494.22;;;7.46
64947;BMP280;51469;52.150;4.682;2023-02-28T08:21:45;103499.44;;;7.43
64947;BMP280;51469;52.150;4.682;2023-02-28T08:24:11;103508.88;;;7.55
64947;BMP280;51469;52.150;4.682;2023-02-28T08:26:36;103503.84;;;7.67
64947;BMP280;51469;52.150;4.682;2023-02-28T08:29:01;103507.03;;;7.74
64947;BMP280;51469;52.150;4.682;2023-02-28T08:31:27;103506.47;;;7.77
64947;BMP280;51469;52.150;4.682;2023-02-28T08:33:52;103491.09;;;7.81
64947;BMP280;51469;52.150;4.682;2023-02-28T08:36:20;103489.97;;;7.87
64947;BMP280;51469;52.150;4.682;2023-02-28T08:38:46;103486.66;;;7.90
64947;BMP280;51469;52.150;4.682;2023-02-28T08:41:12;103485.41;;;8.01
64947;BMP280;51469;52.150;4.682;2023-02-28T08:43:39;103477.25;;;8.20
64947;BMP280;51469;52.150;4.682;2023-02-28T08:46:05;103476.19;;;8.39
64947;BMP280;51469;52.150;4.682;2023-02-28T08:48:33;103476.19;;;8.39
64947;BMP280;51469;52.150;4.682;2023-02-28T08:51:01;103480.63;;;8.35
64947;BMP280;51469;52.150;4.682;2023-02-28T08:53:26;103475.69;;;8.32
64947;BMP280;51469;52.150;4.682;2023-02-28T08:56:21;103470.47;;;8.54
64947;BMP280;51469;52.150;4.682;2023-02-28T08:58:48;103464.50;;;8.71
64947;BMP280;51469;52.150;4.682;2023-02-28T09:03:50;103473.53;;;8.71
64947;BMP280;51469;52.150;4.682;2023-02-28T09:06:17;103477.38;;;8.70
64947;BMP280;51469;52.150;4.682;2023-02-28T09:08:43;103477.47;;;8.23
64947;BMP280;51469;52.150;4.682;2023-02-28T09:11:10;103478.16;;;8.52
64947;BMP280;51469;52.150;4.682;2023-02-28T09:13:36;103481.13;;;8.56
64947;BMP280;51469;52.150;4.682;2023-02-28T09:16:03;103490.06;;;8.43
64947;BMP280;51469;52.150;4.682;2023-02-28T09:18:29;103491.84;;;8.52
64947;BMP280;51469;52.150;4.682;2023-02-28T09:20:55;103475.75;;;8.69
64947;BMP280;51469;52.150;4.682;2023-02-28T09:23:21;103486.81;;;8.96
64947;BMP280;51469;52.150;4.682;2023-02-28T09:25:51;103483.53;;;8.81
64947;BMP280;51469;52.150;4.682;2023-02-28T09:28:17;103488.03;;;8.90
64947;BMP280;51469;52.150;4.682;2023-02-28T09:30:49;103485.63;;;9.02
64947;BMP280;51469;52.150;4.682;2023-02-28T09:33:16;103484.69;;;9.25
64947;BMP280;51469;52.150;4.682;2023-02-28T09:35:42;103486.56;;;9.43
64947;BMP280;51469;52.150;4.682;2023-02-28T09:38:09;103498.16;;;9.68
64947;BMP280;51469;52.150;4.682;2023-02-28T09:40:46;103490.56;;;9.92
64947;BMP280;51469;52.150;4.682;2023-02-28T09:43:14;103500.19;;;10.03
64947;BMP280;51469;52.150;4.682;2023-02-28T09:45:42;103502.44;;;10.01
64947;BMP280;51469;52.150;4.682;2023-02-28T09:48:18;103509.94;;;10.09
64947;BMP280;51469;52.150;4.682;2023-02-28T09:51:12;103498.78;;;9.92
64947;BMP280;51469;52.150;4.682;2023-02-28T09:53:40;103497.06;;;9.96
64947;BMP280;51469;52.150;4.682;2023-02-28T09:56:15;103492.69;;;9.95
64947;BMP280;51469;52.150;4.682;2023-02-28T09:58:49;103494.09;;;10.06
64947;BMP280;51469;52.150;4.682;2023-02-28T10:01:23;103494.91;;;10.20
64947;BMP280;51469;52.150;4.682;2023-02-28T10:04:00;103498.53;;;10.29
64947;BMP280;51469;52.150;4.682;2023-02-28T10:06:30;103496.31;;;10.31
64947;BMP280;51469;52.150;4.682;2023-02-28T10:09:03;103492.84;;;10.39
64947;BMP280;51469;52.150;4.682;2023-02-28T10:11:32;103495.97;;;10.46
64947;BMP280;51469;52.150;4.682;2023-02-28T10:14:12;103489.25;;;10.74
64947;BMP280;51469;52.150;4.682;2023-02-28T10:17:02;103494.28;;;10.94
64947;BMP280;51469;52.150;4.682;2023-02-28T10:19:35;103495.88;;;10.95
64947;BMP280;51469;52.150;4.682;2023-02-28T10:24:54;103499.78;;;10.94
64947;BMP280;51469;52.150;4.682;2023-02-28T10:27:28;103500.44;;;10.99
64947;BMP280;51469;52.150;4.682;2023-02-28T10:29:59;103504.06;;;11.08
64947;BMP280;51469;52.150;4.682;2023-02-28T10:35:20;103503.00;;;10.96
64947;BMP280;51469;52.150;4.682;2023-02-28T10:37:49;103507.50;;;10.92
64947;BMP280;51469;52.150;4.682;2023-02-28T10:42:55;103500.09;;;10.92
64947;BMP280;51469;52.150;4.682;2023-02-28T10:45:21;103501.56;;;10.98
64947;BMP280;51469;52.150;4.682;2023-02-28T10:47:54;103492.63;;;10.93
64947;BMP280;51469;52.150;4.682;2023-02-28T10:51:00;103502.59;;;11.11
64947;BMP280;51469;52.150;4.682;2023-02-28T10:56:00;103498.47;;;11.83
64947;BMP280;51469;52.150;4.682;2023-02-28T10:59:24;103490.84;;;11.80
64947;BMP280;51469;52.150;4.682;2023-02-28T11:01:39;103490.22;;;11.83
64947;BMP280;51469;52.150;4.682;2023-02-28T11:04:16;103484.06;;;11.86
64947;BMP280;51469;52.150;4.682;2023-02-28T11:06:43;103469.78;;;11.84
64947;BMP280;51469;52.150;4.682;2023-02-28T11:09:29;103477.56;;;11.90
64947;BMP280;51469;52.150;4.682;2023-02-28T11:11:55;103469.00;;;11.92
64947;BMP280;51469;52.150;4.682;2023-02-28T11:14:26;103466.94;;;12.06
64947;BMP280;51469;52.150;4.682;2023-02-28T11:16:52;103463.38;;;11.97
64947;BMP280;51469;52.150;4.682;2023-02-28T11:19:23;103460.09;;;11.86
64947;BMP280;51469;52.150;4.682;2023-02-28T11:22:00;103448.44;;;11.81
64947;BMP280;51469;52.150;4.682;2023-02-28T11:26:57;103459.63;;;11.93
64947;BMP280;51469;52.150;4.682;2023-02-28T11:29:28;103463.34;;;11.80
64947;BMP280;51469;52.150;4.682;2023-02-28T11:32:16;103461.00;;;11.65
64947;BMP280;51469;52.150;4.682;2023-02-28T11:34:42;103456.09;;;11.45
64947;BMP280;51469;52.150;4.682;2023-02-28T11:37:18;103468.44;;;11.25
64947;BMP280;51469;52.150;4.682;2023-02-28T11:39:45;103455.88;;;11.11
64947;BMP280;51469;52.150;4.682;2023-02-28T11:42:22;103452.13;;;10.98
64947;BMP280;51469;52.150;4.682;2023-02-28T11:50:49;103442.47;;;11.40
64947;BMP280;51469;52.150;4.682;2023-02-28T11:53:39;103445.06;;;11.92
64947;BMP280;51469;52.150;4.682;2023-02-28T11:56:36;103439.28;;;12.45
64947;BMP280;51469;52.150;4.682;2023-02-28T11:59:48;103433.84;;;12.74
64947;BMP280;51469;52.150;4.682;2023-02-28T12:02:15;103439.66;;;12.98
64947;BMP280;51469;52.150;4.682;2023-02-28T12:10:13;103410.88;;;13.45
64947;BMP280;51469;52.150;4.682;2023-02-28T12:20:33;103406.78;;;13.22
64947;BMP280;51469;52.150;4.682;2023-02-28T12:28:37;103406.00;;;12.67
64947;BMP280;51469;52.150;4.682;2023-02-28T12:31:13;103409.63;;;12.59
64947;BMP280;51469;52.150;4.682;2023-02-28T12:33:47;103403.78;;;12.52
64947;BMP280;51469;52.150;4.682;2023-02-28T12:36:18;103396.28;;;12.78
64947;BMP280;51469;52.150;4.682;2023-02-28T12:41:22;103399.53;;;12.46
64947;BMP280;51469;52.150;4.682;2023-02-28T12:43:56;103400.88;;;12.57
64947;BMP280;51469;52.150;4.682;2023-02-28T12:46:26;103401.41;;;12.96
64947;BMP280;51469;52.150;4.682;2023-02-28T12:48:59;103396.50;;;13.02
64947;BMP280;51469;52.150;4.682;2023-02-28T12:51:26;103385.19;;;13.24
64947;BMP280;51469;52.150;4.682;2023-02-28T12:54:12;103388.34;;;13.14
64947;BMP280;51469;52.150;4.682;2023-02-28T12:59:24;103405.56;;;13.11
64947;BMP280;51469;52.150;4.682;2023-02-28T13:04:54;103377.31;;;13.14
64947;BMP280;51469;52.150;4.682;2023-02-28T13:09:59;103368.63;;;12.40
64947;BMP280;51469;52.150;4.682;2023-02-28T13:12:25;103361.63;;;12.68
64947;BMP280;51469;52.150;4.682;2023-02-28T13:15:04;103364.56;;;12.46
64947;BMP280;51469;52.150;4.682;2023-02-28T13:17:30;103362.84;;;12.88
64947;BMP280;51469;52.150;4.682;2023-02-28T13:19:57;103379.75;;;13.15
64947;BMP280;51469;52.150;4.682;2023-02-28T13:27:57;103353.56;;;13.50
64947;BMP280;51469;52.150;4.682;2023-02-28T13:38:49;103342.78;;;13.37
64947;BMP280;51469;52.150;4.682;2023-02-28T13:46:33;103346.16;;;12.84
64947;BMP280;51469;52.150;4.682;2023-02-28T13:51:46;103336.00;;;13.05
64947;BMP280;51469;52.150;4.682;2023-02-28T13:59:43;103337.16;;;13.04
64947;BMP280;51469;52.150;4.682;2023-02-28T14:02:34;103321.88;;;13.07
64947;BMP280;51469;52.150;4.682;2023-02-28T14:05:13;103323.91;;;12.98
64947;BMP280;51469;52.150;4.682;2023-02-28T14:07:46;103325.69;;;12.94
64947;BMP280;51469;52.150;4.682;2023-02-28T14:10:29;103322.19;;;13.14
64947;BMP280;51469;52.150;4.682;2023-02-28T14:13:01;103318.53;;;12.64
64947;BMP280;51469;52.150;4.682;2023-02-28T14:17:55;103308.44;;;12.76
64947;BMP280;51469;52.150;4.682;2023-02-28T14:20:22;103318.09;;;12.91
64947;BMP280;51469;52.150;4.682;2023-02-28T14:23:35;103314.84;;;12.89
64947;BMP280;51469;52.150;4.682;2023-02-28T14:31:13;103315.38;;;12.82
64947;BMP280;51469;52.150;4.682;2023-02-28T14:36:14;103305.28;;;12.86
64947;BMP280;51469;52.150;4.682;2023-02-28T14:38:52;103280.91;;;12.68
64947;BMP280;51469;52.150;4.682;2023-02-28T14:41:28;103299.66;;;12.83
64947;BMP280;51469;52.150;4.682;2023-02-28T14:43:59;103305.47;;;12.90
64947;BMP280;51469;52.150;4.682;2023-02-28T14:46:39;103291.56;;;12.78
64947;BMP280;51469;52.150;4.682;2023-02-28T14:49:06;103306.56;;;12.89
64947;BMP280;51469;52.150;4.682;2023-02-28T14:51:32;103306.63;;;12.80
64947;BMP280;51469;52.150;4.682;2023-02-28T14:54:00;103310.09;;;12.69
64947;BMP280;51469;52.150;4.682;2023-02-28T14:56:38;103306.91;;;12.50
64947;BMP280;51469;52.150;4.682;2023-02-28T14:59:05;103309.03;;;12.44
64947;BMP280;51469;52.150;4.682;2023-02-28T15:01:30;103311.81;;;12.19
64947;BMP280;51469;52.150;4.682;2023-02-28T15:04:05;103310.84;;;12.15
64947;BMP280;51469;52.150;4.682;2023-02-28T15:06:31;103308.09;;;12.23
64947;BMP280;51469;52.150;4.682;2023-02-28T15:09:14;103302.91;;;12.30
64947;BMP280;51469;52.150;4.682;2023-02-28T15:11:40;103310.25;;;12.01
64947;BMP280;51469;52.150;4.682;2023-02-28T15:14:06;103317.19;;;11.90
64947;BMP280;51469;52.150;4.682;2023-02-28T15:16:35;103306.66;;;11.92
64947;BMP280;51469;52.150;4.682;2023-02-28T15:19:39;103312.50;;;11.99
64947;BMP280;51469;52.150;4.682;2023-02-28T15:22:06;103323.50;;;11.82
64947;BMP280;51469;52.150;4.682;2023-02-28T15:27:07;103327.72;;;11.88
64947;BMP280;51469;52.150;4.682;2023-02-28T15:29:51;103321.22;;;11.67
64947;BMP280;51469;52.150;4.682;2023-02-28T15:32:26;103318.47;;;11.84
64947;BMP280;51469;52.150;4.682;2023-02-28T15:34:52;103319.63;;;11.74
64947;BMP280;51469;52.150;4.682;2023-02-28T15:37:39;103322.38;;;11.74
64947;BMP280;51469;52.150;4.682;2023-02-28T15:42:39;103325.41;;;11.56
64947;BMP280;51469;52.150;4.682;2023-02-28T15:45:05;103324.59;;;11.47
64947;BMP280;51469;52.150;4.682;2023-02-28T15:47:31;103317.13;;;11.39
64947;BMP280;51469;52.150;4.682;2023-02-28T15:50:00;103320.22;;;11.46
64947;BMP280;51469;52.150;4.682;2023-02-28T15:54:57;103318.41;;;11.24
64947;BMP280;51469;52.150;4.682;2023-02-28T15:57:28;103319.88;;;11.30
64947;BMP280;51469;52.150;4.682;2023-02-28T15:59:56;103319.84;;;11.22
64947;BMP280;51469;52.150;4.682;2023-02-28T16:02:31;103315.97;;;11.23
64947;BMP280;51469;52.150;4.682;2023-02-28T16:07:42;103318.34;;;11.07
64947;BMP280;51469;52.150;4.682;2023-02-28T16:10:11;103315.56;;;10.99
64947;BMP280;51469;52.150;4.682;2023-02-28T16:12:38;103313.13;;;10.97
64947;BMP280;51469;52.150;4.682;2023-02-28T16:15:25;103321.22;;;11.11
64947;BMP280;51469;52.150;4.682;2023-02-28T16:17:51;103314.94;;;11.02
64947;BMP280;51469;52.150;4.682;2023-02-28T16:20:29;103313.94;;;10.98
64947;BMP280;51469;52.150;4.682;2023-02-28T16:22:55;103316.81;;;10.93
64947;BMP280;51469;52.150;4.682;2023-02-28T16:25:23;103305.97;;;10.88
64947;BMP280;51469;52.150;4.682;2023-02-28T16:27:52;103316.31;;;10.82